sensor_id;sensor_type;location;lat;lon;timestamp;temperature;humidity
16128;DHT22;8168;49.036;7.690;2024-03-17T00:01:15;6.50;99.90
16128;DHT22;8168;49.036;7.690;2024-03-17T00:03:45;6.50;99.90
16128;DHT22;8168;49.036;7.690;2024-03-17T00:06:16;6.50;99.90
16128;DHT22;8168;49.036;7.690;2024-03-17T00:08:47;6.40;99.90
16128;DHT22;8168;49.036;7.690;2024-03-17T00:11:18;6.40;99.90
16128;DHT22;8168;49.036;7.690;2024-03-17T00:13:49;6.40;99.90
16128;DHT22;8168;49.036;7.690;2024-03-17T00:16:19;6.40;99.90
16128;DHT22;8168;49.036;7.690;2024-03-17T00:18:50;6.40;99.90
16128;DHT22;8168;49.036;7.690;2024-03-17T00:21:20;6.40;99.90
16128;DHT22;8168;49.036;7.690;2024-03-17T00:23:51;6.40;99.90
16128;DHT22;8168;49.036;7.690;2024-03-17T00:26:22;6.40;99.90
16128;DHT22;8168;49.036;7.690;2024-03-17T00:28:52;6.40;99.90
16128;DHT22;8168;49.036;7.690;2024-03-17T00:31:23;6.40;99.90
16128;DHT22;8168;49.036;7.690;2024-03-17T00:33:54;6.40;99.90
16128;DHT22;8168;49.036;7.690;2024-03-17T00:36:25;6.30;99.90
16128;DHT22;8168;49.036;7.690;2024-03-17T00:38:56;6.30;99.90
16128;DHT22;8168;49.036;7.690;2024-03-17T00:41:27;6.30;99.90
16128;DHT22;8168;49.036;7.690;2024-03-17T00:43:57;6.30;99.90
16128;DHT22;8168;49.036;7.690;2024-03-17T00:46:31;6.30;99.90
16128;DHT22;8168;49.036;7.690;2024-03-17T00:49:01;6.20;99.90
16128;DHT22;8168;49.036;7.690;2024-03-17T00:51:32;6.20;99.90
16128;DHT22;8168;49.036;7.690;2024-03-17T00:54:03;6.20;99.90
16128;DHT22;8168;49.036;7.690;2024-03-17T00:56:34;6.20;99.90
16128;DHT22;8168;49.036;7.690;2024-03-17T00:59:04;6.20;99.90
16128;DHT22;8168;49.036;7.690;2024-03-17T01:01:35;6.20;99.90
16128;DHT22;8168;49.036;7.690;2024-03-17T01:04:06;6.10;99.90
16128;DHT22;8168;49.036;7.690;2024-03-17T01:06:37;6.10;99.90
16128;DHT22;8168;49.036;7.690;2024-03-17T01:09:11;6.10;99.90
16128;DHT22;8168;49.036;7.690;2024-03-17T01:11:41;6.00;99.90
16128;DHT22;8168;49.036;7.690;2024-03-17T01:14:12;6.00;99.90
16128;DHT22;8168;49.036;7.690;2024-03-17T01:16:43;6.00;99.90
16128;DHT22;8168;49.036;7.690;2024-03-17T01:19:14;6.00;99.90
16128;DHT22;8168;49.036;7.690;2024-03-17T01:21:44;6.00;99.90
16128;DHT22;8168;49.036;7.690;2024-03-17T01:24:16;6.00;99.90
16128;DHT22;8168;49.036;7.690;2024-03-17T01:26:47;6.00;99.90
16128;DHT22;8168;49.036;7.690;2024-03-17T01:29:18;6.00;99.90
16128;DHT22;8168;49.036;7.690;2024-03-17T01:31:49;5.10;99.90
16128;DHT22;8168;49.036;7.690;2024-03-17T01:34:21;6.00;99.90
16128;DHT22;8168;49.036;7.690;2024-03-17T01:36:52;6.00;99.90
16128;DHT22;8168;49.036;7.690;2024-03-17T01:39:22;5.90;99.90
16128;DHT22;8168;49.036;7.690;2024-03-17T01:41:53;5.90;99.90
16128;DHT22;8168;49.036;7.690;2024-03-17T01:44:27;5.90;99.90
16128;DHT22;8168;49.036;7.690;2024-03-17T01:46:58;5.90;99.90
16128;DHT22;8168;49.036;7.690;2024-03-17T01:49:29;5.90;99.90
16128;DHT22;8168;49.036;7.690;2024-03-17T01:52:00;5.90;99.90
16128;DHT22;8168;49.036;7.690;2024-03-17T01:54:31;5.90;99.90
16128;DHT22;8168;49.036;7.690;2024-03-17T01:57:01;5.80;99.90
16128;DHT22;8168;49.036;7.690;2024-03-17T01:59:33;5.80;99.90
16128;DHT22;8168;49.036;7.690;2024-03-17T02:02:03;5.80;99.90
16128;DHT22;8168;49.036;7.690;2024-03-17T02:04:34;5.80;99.90
16128;DHT22;8168;49.036;7.690;2024-03-17T02:07:05;5.80;99.90
16128;DHT22;8168;49.036;7.690;2024-03-17T02:09:35;5.70;99.90
16128;DHT22;8168;49.036;7.690;2024-03-17T02:12:07;5.70;99.90
16128;DHT22;8168;49.036;7.690;2024-03-17T02:14:38;5.70;99.90
16128;DHT22;8168;49.036;7.690;2024-03-17T02:17:09;5.60;99.90
16128;DHT22;8168;49.036;7.690;2024-03-17T02:19:40;5.50;99.90
16128;DHT22;8168;49.036;7.690;2024-03-17T02:22:14;5.40;99.90
16128;DHT22;8168;49.036;7.690;2024-03-17T02:24:47;5.40;99.90
16128;DHT22;8168;49.036;7.690;2024-03-17T02:27:18;5.40;99.90
16128;DHT22;8168;49.036;7.690;2024-03-17T02:29:49;5.30;99.90
16128;DHT22;8168;49.036;7.690;2024-03-17T02:32:20;5.30;99.90
16128;DHT22;8168;49.036;7.690;2024-03-17T02:34:52;5.30;99.90
16128;DHT22;8168;49.036;7.690;2024-03-17T02:37:23;5.30;99.90
16128;DHT22;8168;49.036;7.690;2024-03-17T02:39:54;5.30;99.90
16128;DHT22;8168;49.036;7.690;2024-03-17T02:42:24;5.30;99.90
16128;DHT22;8168;49.036;7.690;2024-03-17T02:44:55;5.30;99.90
16128;DHT22;8168;49.036;7.690;2024-03-17T02:47:26;5.30;99.90
16128;DHT22;8168;49.036;7.690;2024-03-17T02:49:56;5.20;99.90
16128;DHT22;8168;49.036;7.690;2024-03-17T02:52:27;5.20;99.90
16128;DHT22;8168;49.036;7.690;2024-03-17T02:54:58;5.20;99.90
16128;DHT22;8168;49.036;7.690;2024-03-17T02:57:31;5.20;99.90
16128;DHT22;8168;49.036;7.690;2024-03-17T03:00:02;5.20;99.90
16128;DHT22;8168;49.036;7.690;2024-03-17T03:02:35;5.30;99.90
16128;DHT22;8168;49.036;7.690;2024-03-17T03:05:06;5.20;99.90
16128;DHT22;8168;49.036;7.690;2024-03-17T03:07:37;5.20;99.90
16128;DHT22;8168;49.036;7.690;2024-03-17T03:10:08;5.20;99.90
16128;DHT22;8168;49.036;7.690;2024-03-17T03:12:40;5.30;99.90
16128;DHT22;8168;49.036;7.690;2024-03-17T03:15:11;5.20;99.90
16128;DHT22;8168;49.036;7.690;2024-03-17T03:17:42;5.20;99.90
16128;DHT22;8168;49.036;7.690;2024-03-17T03:20:12;5.20;99.90
16128;DHT22;8168;49.036;7.690;2024-03-17T03:22:43;5.20;99.90
16128;DHT22;8168;49.036;7.690;2024-03-17T03:25:14;5.20;99.90
16128;DHT22;8168;49.036;7.690;2024-03-17T03:27:45;5.20;99.90
16128;DHT22;8168;49.036;7.690;2024-03-17T03:30:15;5.20;99.90
16128;DHT22;8168;49.036;7.690;2024-03-17T03:32:46;5.20;99.90
16128;DHT22;8168;49.036;7.690;2024-03-17T03:35:18;5.10;99.90
16128;DHT22;8168;49.036;7.690;2024-03-17T03:37:50;5.10;99.90
16128;DHT22;8168;49.036;7.690;2024-03-17T03:40:20;5.10;99.90
16128;DHT22;8168;49.036;7.690;2024-03-17T03:42:51;5.10;99.90
16128;DHT22;8168;49.036;7.690;2024-03-17T03:45:23;5.10;99.90
16128;DHT22;8168;49.036;7.690;2024-03-17T03:47:54;5.10;99.90
16128;DHT22;8168;49.036;7.690;2024-03-17T03:50:24;5.10;99.90
16128;DHT22;8168;49.036;7.690;2024-03-17T03:52:55;5.00;99.90
16128;DHT22;8168;49.036;7.690;2024-03-17T03:55:26;5.00;99.90
16128;DHT22;8168;49.036;7.690;2024-03-17T03:57:57;5.00;99.90
16128;DHT22;8168;49.036;7.690;2024-03-17T04:00:27;5.00;99.90
16128;DHT22;8168;49.036;7.690;2024-03-17T04:03:01;5.00;99.90
16128;DHT22;8168;49.036;7.690;2024-03-17T04:05:32;5.00;99.90
16128;DHT22;8168;49.036;7.690;2024-03-17T04:08:04;4.90;99.90
16128;DHT22;8168;49.036;7.690;2024-03-17T04:10:35;4.90;99.90
16128;DHT22;8168;49.036;7.690;2024-03-17T04:13:06;4.90;99.90
16128;DHT22;8168;49.036;7.690;2024-03-17T04:15:37;4.90;99.90
16128;DHT22;8168;49.036;7.690;2024-03-17T04:18:08;4.90;99.90
16128;DHT22;8168;49.036;7.690;2024-03-17T04:20:40;4.90;99.90
16128;DHT22;8168;49.036;7.690;2024-03-17T04:23:11;4.90;99.90
16128;DHT22;8168;49.036;7.690;2024-03-17T04:25:41;4.80;99.90
16128;DHT22;8168;49.036;7.690;2024-03-17T04:28:14;4.80;99.90
16128;DHT22;8168;49.036;7.690;2024-03-17T04:30:45;4.80;99.90
16128;DHT22;8168;49.036;7.690;2024-03-17T04:33:16;4.70;99.90
16128;DHT22;8168;49.036;7.690;2024-03-17T04:35:47;4.70;99.90
16128;DHT22;8168;49.036;7.690;2024-03-17T04:38:17;4.70;99.90
16128;DHT22;8168;49.036;7.690;2024-03-17T04:40:49;4.70;99.90
16128;DHT22;8168;49.036;7.690;2024-03-17T04:43:20;4.70;99.90
16128;DHT22;8168;49.036;7.690;2024-03-17T04:46:02;4.70;99.90
16128;DHT22;8168;49.036;7.690;2024-03-17T04:48:34;4.60;99.90
16128;DHT22;8168;49.036;7.690;2024-03-17T04:51:05;4.60;99.90
16128;DHT22;8168;49.036;7.690;2024-03-17T04:53:36;4.60;99.90
16128;DHT22;8168;49.036;7.690;2024-03-17T04:56:06;4.50;99.90
16128;DHT22;8168;49.036;7.690;2024-03-17T04:58:37;4.50;99.90
16128;DHT22;8168;49.036;7.690;2024-03-17T05:01:08;4.50;99.90
16128;DHT22;8168;49.036;7.690;2024-03-17T05:03:38;4.40;99.90
16128;DHT22;8168;49.036;7.690;2024-03-17T05:06:09;4.40;99.90
16128;DHT22;8168;49.036;7.690;2024-03-17T05:08:40;4.40;99.90
16128;DHT22;8168;49.036;7.690;2024-03-17T05:11:10;4.40;99.90
16128;DHT22;8168;49.036;7.690;2024-03-17T05:13:42;4.40;99.90
16128;DHT22;8168;49.036;7.690;2024-03-17T05:16:12;4.40;99.90
16128;DHT22;8168;49.036;7.690;2024-03-17T05:18:43;4.30;99.90
16128;DHT22;8168;49.036;7.690;2024-03-17T05:21:14;4.30;99.90
16128;DHT22;8168;49.036;7.690;2024-03-17T05:23:44;4.50;99.90
16128;DHT22;8168;49.036;7.690;2024-03-17T05:26:15;4.30;99.90
16128;DHT22;8168;49.036;7.690;2024-03-17T05:28:46;4.30;99.90
16128;DHT22;8168;49.036;7.690;2024-03-17T05:31:16;4.30;99.90
16128;DHT22;8168;49.036;7.690;2024-03-17T05:33:48;4.20;99.90
16128;DHT22;8168;49.036;7.690;2024-03-17T05:36:19;4.30;99.90
16128;DHT22;8168;49.036;7.690;2024-03-17T05:38:52;4.50;99.90
16128;DHT22;8168;49.036;7.690;2024-03-17T05:41:23;4.20;99.90
16128;DHT22;8168;49.036;7.690;2024-03-17T05:43:56;4.20;99.90
16128;DHT22;8168;49.036;7.690;2024-03-17T05:46:29;4.20;99.90
16128;DHT22;8168;49.036;7.690;2024-03-17T05:49:00;4.20;99.90
16128;DHT22;8168;49.036;7.690;2024-03-17T05:51:30;4.20;99.90
16128;DHT22;8168;49.036;7.690;2024-03-17T05:54:01;4.20;99.90
16128;DHT22;8168;49.036;7.690;2024-03-17T05:56:31;4.20;99.90
16128;DHT22;8168;49.036;7.690;2024-03-17T05:59:02;4.20;99.90
16128;DHT22;8168;49.036;7.690;2024-03-17T06:01:32;4.20;99.90
16128;DHT22;8168;49.036;7.690;2024-03-17T06:04:03;4.10;99.90
16128;DHT22;8168;49.036;7.690;2024-03-17T06:06:35;4.10;99.90
16128;DHT22;8168;49.036;7.690;2024-03-17T06:09:05;4.10;99.90
16128;DHT22;8168;49.036;7.690;2024-03-17T06:11:40;4.30;99.90
16128;DHT22;8168;49.036;7.690;2024-03-17T06:14:11;4.10;99.90
16128;DHT22;8168;49.036;7.690;2024-03-17T06:16:42;4.10;99.90
16128;DHT22;8168;49.036;7.690;2024-03-17T06:19:14;4.10;99.90
16128;DHT22;8168;49.036;7.690;2024-03-17T06:21:45;4.10;99.90
16128;DHT22;8168;49.036;7.690;2024-03-17T06:24:15;4.10;99.90
16128;DHT22;8168;49.036;7.690;2024-03-17T06:26:46;4.30;99.90
16128;DHT22;8168;49.036;7.690;2024-03-17T06:29:19;4.10;99.90
16128;DHT22;8168;49.036;7.690;2024-03-17T06:31:49;4.10;99.90
16128;DHT22;8168;49.036;7.690;2024-03-17T06:34:20;4.10;99.90
16128;DHT22;8168;49.036;7.690;2024-03-17T06:36:51;4.10;99.90
16128;DHT22;8168;49.036;7.690;2024-03-17T06:39:21;4.10;99.90
16128;DHT22;8168;49.036;7.690;2024-03-17T06:41:52;4.10;99.90
16128;DHT22;8168;49.036;7.690;2024-03-17T06:44:22;4.30;99.90
16128;DHT22;8168;49.036;7.690;2024-03-17T06:46:57;4.20;99.90
16128;DHT22;8168;49.036;7.690;2024-03-17T06:49:28;4.40;99.90
16128;DHT22;8168;49.036;7.690;2024-03-17T06:52:01;4.20;99.90
16128;DHT22;8168;49.036;7.690;2024-03-17T06:54:31;4.20;99.90
16128;DHT22;8168;49.036;7.690;2024-03-17T06:57:06;4.20;99.90
16128;DHT22;8168;49.036;7.690;2024-03-17T06:59:36;4.20;99.90
16128;DHT22;8168;49.036;7.690;2024-03-17T07:02:07;4.30;99.90
16128;DHT22;8168;49.036;7.690;2024-03-17T07:04:38;4.30;99.90
16128;DHT22;8168;49.036;7.690;2024-03-17T07:07:08;4.30;99.90
16128;DHT22;8168;49.036;7.690;2024-03-17T07:09:40;4.30;99.90
16128;DHT22;8168;49.036;7.690;2024-03-17T07:12:10;4.40;99.90
16128;DHT22;8168;49.036;7.690;2024-03-17T07:14:41;4.40;99.90
16128;DHT22;8168;49.036;7.690;2024-03-17T07:17:12;4.40;99.90
16128;DHT22;8168;49.036;7.690;2024-03-17T07:19:42;4.50;99.90
16128;DHT22;8168;49.036;7.690;2024-03-17T07:22:13;4.60;99.90
16128;DHT22;8168;49.036;7.690;2024-03-17T07:24:44;4.60;99.90
16128;DHT22;8168;49.036;7.690;2024-03-17T07:27:15;4.60;99.90
16128;DHT22;8168;49.036;7.690;2024-03-17T07:29:45;4.70;99.90
16128;DHT22;8168;49.036;7.690;2024-03-17T07:32:17;4.70;99.90
16128;DHT22;8168;49.036;7.690;2024-03-17T07:34:47;4.70;99.90
16128;DHT22;8168;49.036;7.690;2024-03-17T07:37:19;4.80;99.90
16128;DHT22;8168;49.036;7.690;2024-03-17T07:39:50;4.80;99.90
16128;DHT22;8168;49.036;7.690;2024-03-17T07:42:21;4.90;99.90
16128;DHT22;8168;49.036;7.690;2024-03-17T07:44:51;4.90;99.90
16128;DHT22;8168;49.036;7.690;2024-03-17T07:47:22;4.90;99.90
16128;DHT22;8168;49.036;7.690;2024-03-17T07:49:53;5.00;99.90
16128;DHT22;8168;49.036;7.690;2024-03-17T07:52:23;5.00;99.90
16128;DHT22;8168;49.036;7.690;2024-03-17T07:54:54;5.10;99.90
16128;DHT22;8168;49.036;7.690;2024-03-17T07:57:24;5.10;99.90
16128;DHT22;8168;49.036;7.690;2024-03-17T07:59:55;5.20;99.90
16128;DHT22;8168;49.036;7.690;2024-03-17T08:02:26;5.20;99.90
16128;DHT22;8168;49.036;7.690;2024-03-17T08:04:56;5.30;99.90
16128;DHT22;8168;49.036;7.690;2024-03-17T08:07:27;5.40;99.90
16128;DHT22;8168;49.036;7.690;2024-03-17T08:09:58;5.40;99.90
16128;DHT22;8168;49.036;7.690;2024-03-17T08:12:31;5.50;99.90
16128;DHT22;8168;49.036;7.690;2024-03-17T08:15:02;5.50;99.90
16128;DHT22;8168;49.036;7.690;2024-03-17T08:17:33;5.60;99.90
16128;DHT22;8168;49.036;7.690;2024-03-17T08:20:04;5.70;99.90
16128;DHT22;8168;49.036;7.690;2024-03-17T08:22:35;5.70;99.90
16128;DHT22;8168;49.036;7.690;2024-03-17T08:25:05;5.80;99.90
16128;DHT22;8168;49.036;7.690;2024-03-17T08:27:36;5.90;99.90
16128;DHT22;8168;49.036;7.690;2024-03-17T08:30:09;6.00;99.90
16128;DHT22;8168;49.036;7.690;2024-03-17T08:32:40;6.00;99.90
16128;DHT22;8168;49.036;7.690;2024-03-17T08:35:11;6.10;99.90
16128;DHT22;8168;49.036;7.690;2024-03-17T08:37:41;6.20;99.90
16128;DHT22;8168;49.036;7.690;2024-03-17T08:40:12;6.30;99.90
16128;DHT22;8168;49.036;7.690;2024-03-17T08:42:44;6.30;99.90
16128;DHT22;8168;49.036;7.690;2024-03-17T08:45:14;6.40;99.90
16128;DHT22;8168;49.036;7.690;2024-03-17T08:47:51;6.40;99.90
16128;DHT22;8168;49.036;7.690;2024-03-17T08:50:22;6.50;99.90
16128;DHT22;8168;49.036;7.690;2024-03-17T08:52:52;6.60;99.90
16128;DHT22;8168;49.036;7.690;2024-03-17T08:55:23;6.70;99.90
16128;DHT22;8168;49.036;7.690;2024-03-17T08:57:54;6.90;99.90
16128;DHT22;8168;49.036;7.690;2024-03-17T09:00:24;7.00;99.90
16128;DHT22;8168;49.036;7.690;2024-03-17T09:02:55;8.20;99.90
16128;DHT22;8168;49.036;7.690;2024-03-17T09:05:26;7.20;99.90
16128;DHT22;8168;49.036;7.690;2024-03-17T09:07:57;7.30;99.90
16128;DHT22;8168;49.036;7.690;2024-03-17T09:10:27;7.40;99.90
16128;DHT22;8168;49.036;7.690;2024-03-17T09:12:58;7.50;99.90
16128;DHT22;8168;49.036;7.690;2024-03-17T09:15:28;7.60;99.90
16128;DHT22;8168;49.036;7.690;2024-03-17T09:17:59;7.70;99.90
16128;DHT22;8168;49.036;7.690;2024-03-17T09:20:30;7.80;99.90
16128;DHT22;8168;49.036;7.690;2024-03-17T09:23:01;8.00;99.90
16128;DHT22;8168;49.036;7.690;2024-03-17T09:25:32;7.60;99.90
16128;DHT22;8168;49.036;7.690;2024-03-17T09:28:03;8.20;99.90
16128;DHT22;8168;49.036;7.690;2024-03-17T09:30:33;8.30;99.90
16128;DHT22;8168;49.036;7.690;2024-03-17T09:33:04;8.50;99.90
16128;DHT22;8168;49.036;7.690;2024-03-17T09:35:35;8.70;99.90
16128;DHT22;8168;49.036;7.690;2024-03-17T09:38:05;8.80;99.90
16128;DHT22;8168;49.036;7.690;2024-03-17T09:40:36;9.00;99.90
16128;DHT22;8168;49.036;7.690;2024-03-17T09:43:08;9.20;99.90
16128;DHT22;8168;49.036;7.690;2024-03-17T09:45:42;9.30;99.90
16128;DHT22;8168;49.036;7.690;2024-03-17T09:48:17;9.50;99.90
16128;DHT22;8168;49.036;7.690;2024-03-17T09:50:54;9.60;99.90
16128;DHT22;8168;49.036;7.690;2024-03-17T09:53:30;9.80;99.90
16128;DHT22;8168;49.036;7.690;2024-03-17T09:56:12;10.00;99.90
16128;DHT22;8168;49.036;7.690;2024-03-17T09:58:47;10.20;99.90
16128;DHT22;8168;49.036;7.690;2024-03-17T10:01:18;10.30;99.90
16128;DHT22;8168;49.036;7.690;2024-03-17T10:03:49;10.40;99.90
16128;DHT22;8168;49.036;7.690;2024-03-17T10:06:25;10.50;99.90
16128;DHT22;8168;49.036;7.690;2024-03-17T10:09:00;10.70;99.90
16128;DHT22;8168;49.036;7.690;2024-03-17T10:11:34;10.80;99.90
16128;DHT22;8168;49.036;7.690;2024-03-17T10:14:08;11.00;99.90
16128;DHT22;8168;49.036;7.690;2024-03-17T10:16:38;11.20;99.90
16128;DHT22;8168;49.036;7.690;2024-03-17T10:19:13;11.30;99.90
16128;DHT22;8168;49.036;7.690;2024-03-17T10:21:46;11.50;99.90
16128;DHT22;8168;49.036;7.690;2024-03-17T10:24:24;11.60;99.90
16128;DHT22;8168;49.036;7.690;2024-03-17T10:26:56;11.70;99.90
16128;DHT22;8168;49.036;7.690;2024-03-17T10:29:34;11.80;99.90
16128;DHT22;8168;49.036;7.690;2024-03-17T10:32:15;11.80;99.90
16128;DHT22;8168;49.036;7.690;2024-03-17T10:34:48;11.80;99.90
16128;DHT22;8168;49.036;7.690;2024-03-17T10:37:20;11.70;99.90
16128;DHT22;8168;49.036;7.690;2024-03-17T10:39:55;11.70;99.90
16128;DHT22;8168;49.036;7.690;2024-03-17T10:42:29;11.60;99.90
16128;DHT22;8168;49.036;7.690;2024-03-17T10:45:01;12.40;99.90
16128;DHT22;8168;49.036;7.690;2024-03-17T10:47:39;11.50;99.90
16128;DHT22;8168;49.036;7.690;2024-03-17T10:50:22;11.50;99.90
16128;DHT22;8168;49.036;7.690;2024-03-17T10:52:55;11.60;99.90
16128;DHT22;8168;49.036;7.690;2024-03-17T10:55:32;11.60;99.90
16128;DHT22;8168;49.036;7.690;2024-03-17T10:58:11;11.70;99.90
16128;DHT22;8168;49.036;7.690;2024-03-17T11:00:45;11.70;99.90
16128;DHT22;8168;49.036;7.690;2024-03-17T11:03:18;12.30;99.90
16128;DHT22;8168;49.036;7.690;2024-03-17T11:05:51;11.70;99.90
16128;DHT22;8168;49.036;7.690;2024-03-17T11:08:23;11.80;99.90
16128;DHT22;8168;49.036;7.690;2024-03-17T11:10:53;11.80;99.90
16128;DHT22;8168;49.036;7.690;2024-03-17T11:13:30;9.10;99.90
16128;DHT22;8168;49.036;7.690;2024-03-17T11:16:01;11.90;99.90
16128;DHT22;8168;49.036;7.690;2024-03-17T11:18:36;12.00;99.90
16128;DHT22;8168;49.036;7.690;2024-03-17T11:24:00;12.10;99.90
16128;DHT22;8168;49.036;7.690;2024-03-17T11:26:33;12.10;99.90
16128;DHT22;8168;49.036;7.690;2024-03-17T11:29:04;12.10;99.90
16128;DHT22;8168;49.036;7.690;2024-03-17T11:31:38;12.10;99.90
16128;DHT22;8168;49.036;7.690;2024-03-17T11:34:30;12.10;99.90
16128;DHT22;8168;49.036;7.690;2024-03-17T11:37:03;12.20;99.90
16128;DHT22;8168;49.036;7.690;2024-03-17T11:39:50;12.30;99.90
16128;DHT22;8168;49.036;7.690;2024-03-17T11:42:27;12.30;99.90
16128;DHT22;8168;49.036;7.690;2024-03-17T11:44:59;12.30;99.90
16128;DHT22;8168;49.036;7.690;2024-03-17T11:47:34;12.30;99.90
16128;DHT22;8168;49.036;7.690;2024-03-17T11:50:07;12.30;99.90
16128;DHT22;8168;49.036;7.690;2024-03-17T11:52:40;12.30;99.90
16128;DHT22;8168;49.036;7.690;2024-03-17T11:55:18;12.30;99.90
16128;DHT22;8168;49.036;7.690;2024-03-17T11:57:55;12.30;99.90
16128;DHT22;8168;49.036;7.690;2024-03-17T12:00:26;12.40;99.90
16128;DHT22;8168;49.036;7.690;2024-03-17T12:02:57;12.30;99.90
16128;DHT22;8168;49.036;7.690;2024-03-17T12:05:28;12.50;99.90
16128;DHT22;8168;49.036;7.690;2024-03-17T12:07:59;12.50;99.90
16128;DHT22;8168;49.036;7.690;2024-03-17T12:10:30;12.50;99.90
16128;DHT22;8168;49.036;7.690;2024-03-17T12:13:00;12.50;99.90
16128;DHT22;8168;49.036;7.690;2024-03-17T12:15:31;12.60;99.90
16128;DHT22;8168;49.036;7.690;2024-03-17T12:18:02;12.60;99.90
16128;DHT22;8168;49.036;7.690;2024-03-17T12:20:33;12.60;99.90
16128;DHT22;8168;49.036;7.690;2024-03-17T12:23:04;12.50;99.90
16128;DHT22;8168;49.036;7.690;2024-03-17T12:25:34;12.50;99.90
16128;DHT22;8168;49.036;7.690;2024-03-17T12:28:15;12.50;99.90
16128;DHT22;8168;49.036;7.690;2024-03-17T12:30:46;12.50;99.90
16128;DHT22;8168;49.036;7.690;2024-03-17T12:33:17;12.50;99.90
16128;DHT22;8168;49.036;7.690;2024-03-17T12:35:48;12.40;99.90
16128;DHT22;8168;49.036;7.690;2024-03-17T12:38:22;12.40;99.90
16128;DHT22;8168;49.036;7.690;2024-03-17T12:40:53;12.40;99.90
16128;DHT22;8168;49.036;7.690;2024-03-17T12:43:23;12.40;99.90
16128;DHT22;8168;49.036;7.690;2024-03-17T12:45:56;12.50;99.90
16128;DHT22;8168;49.036;7.690;2024-03-17T12:48:26;12.50;99.90
16128;DHT22;8168;49.036;7.690;2024-03-17T12:50:57;12.50;99.90
16128;DHT22;8168;49.036;7.690;2024-03-17T12:53:28;12.50;99.90
16128;DHT22;8168;49.036;7.690;2024-03-17T12:55:58;12.50;99.90
16128;DHT22;8168;49.036;7.690;2024-03-17T12:58:48;12.50;99.90
16128;DHT22;8168;49.036;7.690;2024-03-17T13:01:37;12.50;99.90
16128;DHT22;8168;49.036;7.690;2024-03-17T13:04:07;12.50;99.90
16128;DHT22;8168;49.036;7.690;2024-03-17T13:06:38;12.50;99.90
16128;DHT22;8168;49.036;7.690;2024-03-17T13:09:09;12.50;99.90
16128;DHT22;8168;49.036;7.690;2024-03-17T13:11:40;12.50;99.90
16128;DHT22;8168;49.036;7.690;2024-03-17T13:14:11;12.50;99.90
16128;DHT22;8168;49.036;7.690;2024-03-17T13:16:45;12.50;99.90
16128;DHT22;8168;49.036;7.690;2024-03-17T13:19:17;12.50;99.90
16128;DHT22;8168;49.036;7.690;2024-03-17T13:21:47;12.60;99.90
16128;DHT22;8168;49.036;7.690;2024-03-17T13:24:18;12.60;99.90
16128;DHT22;8168;49.036;7.690;2024-03-17T13:26:49;12.60;99.90
16128;DHT22;8168;49.036;7.690;2024-03-17T13:29:21;12.60;99.90
16128;DHT22;8168;49.036;7.690;2024-03-17T13:31:51;12.70;99.90
16128;DHT22;8168;49.036;7.690;2024-03-17T13:34:22;12.70;99.90
16128;DHT22;8168;49.036;7.690;2024-03-17T13:36:53;12.70;99.90
16128;DHT22;8168;49.036;7.690;2024-03-17T13:39:32;12.70;99.90
16128;DHT22;8168;49.036;7.690;2024-03-17T13:42:04;12.70;99.90
16128;DHT22;8168;49.036;7.690;2024-03-17T13:44:35;12.70;99.90
16128;DHT22;8168;49.036;7.690;2024-03-17T13:47:05;12.70;99.90
16128;DHT22;8168;49.036;7.690;2024-03-17T13:49:36;12.80;99.90
16128;DHT22;8168;49.036;7.690;2024-03-17T13:52:07;12.90;99.90
16128;DHT22;8168;49.036;7.690;2024-03-17T13:54:38;12.90;99.90
16128;DHT22;8168;49.036;7.690;2024-03-17T13:57:08;13.00;99.90
16128;DHT22;8168;49.036;7.690;2024-03-17T13:59:39;13.10;99.90
16128;DHT22;8168;49.036;7.690;2024-03-17T14:02:12;13.20;99.90
16128;DHT22;8168;49.036;7.690;2024-03-17T14:04:44;13.20;99.90
16128;DHT22;8168;49.036;7.690;2024-03-17T14:07:14;13.30;99.90
16128;DHT22;8168;49.036;7.690;2024-03-17T14:09:45;13.40;99.90
16128;DHT22;8168;49.036;7.690;2024-03-17T14:12:17;13.40;99.90
16128;DHT22;8168;49.036;7.690;2024-03-17T14:14:47;13.50;99.90
16128;DHT22;8168;49.036;7.690;2024-03-17T14:17:18;14.10;99.90
16128;DHT22;8168;49.036;7.690;2024-03-17T14:19:49;13.60;99.90
16128;DHT22;8168;49.036;7.690;2024-03-17T14:22:19;13.60;99.90
16128;DHT22;8168;49.036;7.690;2024-03-17T14:24:50;13.50;99.90
16128;DHT22;8168;49.036;7.690;2024-03-17T14:27:21;13.40;99.90
16128;DHT22;8168;49.036;7.690;2024-03-17T14:29:51;13.40;99.90
16128;DHT22;8168;49.036;7.690;2024-03-17T14:32:22;13.50;99.90
16128;DHT22;8168;49.036;7.690;2024-03-17T14:34:53;13.50;99.90
16128;DHT22;8168;49.036;7.690;2024-03-17T14:37:24;13.60;99.90
16128;DHT22;8168;49.036;7.690;2024-03-17T14:39:55;13.50;99.90
16128;DHT22;8168;49.036;7.690;2024-03-17T14:42:25;13.50;99.90
16128;DHT22;8168;49.036;7.690;2024-03-17T14:44:56;13.50;99.90
16128;DHT22;8168;49.036;7.690;2024-03-17T14:47:26;13.50;99.90
16128;DHT22;8168;49.036;7.690;2024-03-17T14:49:57;13.40;99.90
16128;DHT22;8168;49.036;7.690;2024-03-17T14:52:28;13.40;99.90
16128;DHT22;8168;49.036;7.690;2024-03-17T14:54:58;13.30;99.90
16128;DHT22;8168;49.036;7.690;2024-03-17T14:57:30;13.40;99.90
16128;DHT22;8168;49.036;7.690;2024-03-17T15:00:01;13.40;99.90
16128;DHT22;8168;49.036;7.690;2024-03-17T15:02:34;13.30;99.90
16128;DHT22;8168;49.036;7.690;2024-03-17T15:05:05;13.30;99.90
16128;DHT22;8168;49.036;7.690;2024-03-17T15:07:37;13.30;99.90
16128;DHT22;8168;49.036;7.690;2024-03-17T15:10:07;13.30;99.90
16128;DHT22;8168;49.036;7.690;2024-03-17T15:12:38;13.20;99.90
16128;DHT22;8168;49.036;7.690;2024-03-17T15:15:10;13.20;99.90
16128;DHT22;8168;49.036;7.690;2024-03-17T15:17:41;13.20;99.90
16128;DHT22;8168;49.036;7.690;2024-03-17T15:20:14;13.20;99.90
16128;DHT22;8168;49.036;7.690;2024-03-17T15:22:49;13.20;99.90
16128;DHT22;8168;49.036;7.690;2024-03-17T15:25:20;13.20;99.90
16128;DHT22;8168;49.036;7.690;2024-03-17T15:27:51;13.20;99.90
16128;DHT22;8168;49.036;7.690;2024-03-17T15:30:21;13.20;99.90
16128;DHT22;8168;49.036;7.690;2024-03-17T15:32:55;13.30;99.90
16128;DHT22;8168;49.036;7.690;2024-03-17T15:35:27;13.30;99.90
16128;DHT22;8168;49.036;7.690;2024-03-17T15:38:00;13.30;99.90
16128;DHT22;8168;49.036;7.690;2024-03-17T15:40:33;13.30;99.90
16128;DHT22;8168;49.036;7.690;2024-03-17T15:43:05;13.30;99.90
16128;DHT22;8168;49.036;7.690;2024-03-17T15:45:36;13.30;99.90
16128;DHT22;8168;49.036;7.690;2024-03-17T15:48:08;13.20;99.90
16128;DHT22;8168;49.036;7.690;2024-03-17T15:50:39;13.20;99.90
16128;DHT22;8168;49.036;7.690;2024-03-17T15:53:10;13.20;99.90
16128;DHT22;8168;49.036;7.690;2024-03-17T15:55:40;13.20;99.90
16128;DHT22;8168;49.036;7.690;2024-03-17T15:58:11;13.20;99.90
16128;DHT22;8168;49.036;7.690;2024-03-17T16:00:41;13.20;99.90
16128;DHT22;8168;49.036;7.690;2024-03-17T16:03:13;13.20;99.90
16128;DHT22;8168;49.036;7.690;2024-03-17T16:05:47;13.20;99.90
16128;DHT22;8168;49.036;7.690;2024-03-17T16:08:22;13.20;99.90
16128;DHT22;8168;49.036;7.690;2024-03-17T16:10:56;13.20;99.90
16128;DHT22;8168;49.036;7.690;2024-03-17T16:13:27;13.20;99.90
16128;DHT22;8168;49.036;7.690;2024-03-17T16:15:59;13.20;99.90
16128;DHT22;8168;49.036;7.690;2024-03-17T16:18:30;13.20;99.90
16128;DHT22;8168;49.036;7.690;2024-03-17T16:21:10;13.20;99.90
16128;DHT22;8168;49.036;7.690;2024-03-17T16:24:02;14.00;99.90
16128;DHT22;8168;49.036;7.690;2024-03-17T16:26:35;13.10;99.90